Time;durP1;ratioP1;P1;durP2;ratioP2;P2;SDS_P1;SDS_P2;PMS_P1;PMS_P2;Temp;Humidity;BMP_temperature;BMP_pressure;BME280_temperature;BME280_humidity;BME280_pressure;Samples;Min_cycle;Max_cycle;Signal;HPM_P1;HPM_P2
2022/11/26 00:00:28;;;;;;;11.32;4.93;;;9.30;77.70;;;;;;5033888;28;20037;-66
2022/11/26 00:02:54;;;;;;;12.45;5.10;;;9.30;77.70;;;;;;5031879;28;20094;-66
2022/11/26 00:05:20;;;;;;;9.85;4.43;;;9.30;77.70;;;;;;5032495;28;20037;-66
2022/11/26 00:07:58;;;;;;;14.38;5.45;;;9.30;77.60;;;;;;5013781;28;20365;-66
2022/11/26 00:10:34;;;;;;;10.57;5.00;;;9.30;77.60;;;;;;5034740;28;20035;-66
2022/11/26 00:13:00;;;;;;;14.88;5.28;;;9.30;77.70;;;;;;5033728;28;20052;-66
2022/11/26 00:15:29;;;;;;;10.25;4.57;;;9.30;77.80;;;;;;5032797;28;20508;-66
2022/11/26 00:17:55;;;;;;;9.43;4.63;;;9.30;77.80;;;;;;5034065;28;20034;-66
2022/11/26 00:20:28;;;;;;;12.07;4.40;;;9.30;77.80;;;;;;5032894;28;20064;-66
2022/11/26 00:22:57;;;;;;;11.57;4.97;;;9.30;77.80;;;;;;5032715;28;20041;-66
2022/11/26 00:25:31;;;;;;;11.40;5.38;;;9.30;77.90;;;;;;5033758;28;20443;-66
2022/11/26 00:27:58;;;;;;;10.30;4.50;;;9.30;77.90;;;;;;5032977;28;20440;-66
2022/11/26 00:30:26;;;;;;;12.15;4.90;;;9.30;77.90;;;;;;5034304;28;20025;-66
2022/11/26 00:32:54;;;;;;;10.70;4.90;;;9.30;77.90;;;;;;5033572;28;20087;-66
2022/11/26 00:35:20;;;;;;;10.98;4.82;;;9.20;77.80;;;;;;5034917;28;20048;-66
2022/11/26 00:37:50;;;;;;;12.18;4.95;;;9.20;77.90;;;;;;5034051;28;20080;-66
2022/11/26 00:40:24;;;;;;;10.02;4.68;;;9.20;77.90;;;;;;5033852;28;20091;-66
2022/11/26 00:42:50;;;;;;;10.80;5.18;;;9.20;77.90;;;;;;5030585;28;20044;-66
2022/11/26 00:45:21;;;;;;;12.98;4.97;;;9.20;77.90;;;;;;5041437;28;20022;-66
2022/11/26 00:47:48;;;;;;;11.93;4.80;;;9.20;77.90;;;;;;5034125;28;20021;-66
2022/11/26 00:50:25;;;;;;;10.07;4.88;;;9.20;78.00;;;;;;5032390;28;20037;-66
2022/11/26 00:52:54;;;;;;;9.82;4.88;;;9.20;78.00;;;;;;5032378;28;20036;-66
2022/11/26 00:55:33;;;;;;;10.68;5.68;;;9.20;78.60;;;;;;5033060;28;20033;-66
2022/11/26 00:57:58;;;;;;;11.60;5.18;;;9.20;77.90;;;;;;5040626;28;20453;-66
2022/11/26 01:00:27;;;;;;;12.27;5.18;;;9.10;77.80;;;;;;5042026;28;20040;-66
2022/11/26 01:02:54;;;;;;;11.02;4.80;;;9.10;77.80;;;;;;5032118;28;20698;-66
2022/11/26 01:05:22;;;;;;;12.13;4.97;;;9.10;77.80;;;;;;5032204;28;20037;-66
2022/11/26 01:07:48;;;;;;;11.32;5.47;;;9.10;77.80;;;;;;5031069;28;20104;-66
2022/11/26 01:10:20;;;;;;;12.00;5.10;;;9.10;78.00;;;;;;5033590;28;20148;-66
2022/11/26 01:12:46;;;;;;;12.52;5.55;;;9.10;77.80;;;;;;5030989;28;20120;-66
2022/11/26 01:15:13;;;;;;;12.27;5.35;;;9.00;77.70;;;;;;5033769;28;20116;-66
2022/11/26 01:17:38;;;;;;;13.48;5.25;;;9.00;77.70;;;;;;5031599;28;20027;-66
2022/11/26 01:20:14;;;;;;;10.73;5.38;;;9.00;77.70;;;;;;5032451;28;20053;-66
2022/11/26 01:22:39;;;;;;;13.48;6.60;;;9.00;77.60;;;;;;5029697;28;20422;-66
2022/11/26 01:25:06;;;;;;;12.48;5.60;;;9.00;77.70;;;;;;5032277;28;20095;-66
2022/11/26 01:27:31;;;;;;;12.80;6.05;;;9.00;77.60;;;;;;5032381;28;20013;-66
2022/11/26 01:29:57;;;;;;;12.55;5.78;;;8.90;77.50;;;;;;5032866;28;20021;-66
2022/11/26 01:32:23;;;;;;;13.98;6.20;;;8.90;77.50;;;;;;5031659;28;20033;-66
2022/11/26 01:34:48;;;;;;;12.35;6.57;;;8.90;77.50;;;;;;5038981;28;20469;-66
2022/11/26 01:37:14;;;;;;;15.20;6.05;;;8.80;77.40;;;;;;5035580;28;20025;-66
2022/11/26 01:39:40;;;;;;;14.90;6.95;;;8.80;77.40;;;;;;5034283;28;20026;-66
2022/11/26 01:42:36;;;;;;;13.02;6.00;;;8.80;77.30;;;;;;5033880;28;20076;-66
2022/11/26 01:45:04;;;;;;;13.15;6.00;;;8.80;77.30;;;;;;5033150;28;20030;-66
2022/11/26 01:47:29;;;;;;;14.00;6.75;;;8.70;77.30;;;;;;5032690;28;20378;-66
2022/11/26 01:50:29;;;;;;;12.35;6.65;;;8.70;78.00;;;;;;5032074;28;20029;-66
2022/11/26 01:53:02;;;;;;;13.57;6.97;;;8.70;77.30;;;;;;5046836;28;20450;-66
2022/11/26 01:55:38;;;;;;;15.77;6.32;;;8.70;77.30;;;;;;5028241;28;20041;-66
2022/11/26 01:58:08;;;;;;;14.43;5.97;;;8.70;77.20;;;;;;5030723;28;20116;-66
2022/11/26 02:00:34;;;;;;;12.40;5.80;;;8.60;77.10;;;;;;5032237;28;20036;-66
2022/11/26 02:03:02;;;;;;;11.00;6.20;;;8.60;77.10;;;;;;5031091;28;20037;-66
2022/11/26 02:05:33;;;;;;;14.30;6.75;;;8.60;77.10;;;;;;5032173;28;20029;-66
2022/11/26 02:07:59;;;;;;;15.50;6.13;;;8.60;77.10;;;;;;5032102;28;20033;-66
2022/11/26 02:10:25;;;;;;;11.30;5.80;;;8.50;77.10;;;;;;5031028;28;20029;-66
2022/11/26 02:12:51;;;;;;;13.52;6.38;;;8.50;77.00;;;;;;5031255;28;20171;-66
2022/11/26 02:15:17;;;;;;;13.48;6.05;;;8.50;77.00;;;;;;5029627;28;20037;-66
2022/11/26 02:17:50;;;;;;;13.60;5.90;;;8.50;77.10;;;;;;5034936;28;20025;-66
2022/11/26 02:20:32;;;;;;;11.10;5.63;;;8.40;77.00;;;;;;5030992;28;20052;-66
2022/11/26 02:23:25;;;;;;;9.18;4.95;;;8.50;77.00;;;;;;5031192;28;20040;-66
2022/11/26 02:26:18;;;;;;;14.18;7.20;;;8.40;76.90;;;;;;5038523;28;20037;-66
2022/11/26 02:29:05;;;;;;;13.70;6.38;;;8.40;76.90;;;;;;5031489;28;20060;-66
2022/11/26 02:31:54;;;;;;;12.88;5.90;;;8.40;76.90;;;;;;5029412;28;20025;-66
2022/11/26 02:34:50;;;;;;;12.13;6.38;;;8.40;76.90;;;;;;5030736;28;20112;-66
2022/11/26 02:37:24;;;;;;;12.63;6.25;;;8.40;76.80;;;;;;5030993;28;20362;-66
2022/11/26 02:39:50;;;;;;;12.20;5.97;;;8.40;76.90;;;;;;5029775;28;20347;-66
2022/11/26 02:42:42;;;;;;;12.90;6.03;;;8.30;76.90;;;;;;5031781;28;20029;-66
2022/11/26 02:45:13;;;;;;;11.20;5.93;;;8.40;76.80;;;;;;5042923;28;20034;-66
2022/11/26 02:47:41;;;;;;;12.32;5.93;;;8.30;76.80;;;;;;5034160;28;20034;-66
2022/11/26 02:50:33;;;;;;;13.52;5.93;;;8.30;76.90;;;;;;5030758;28;20040;-66
2022/11/26 02:53:00;;;;;;;;;;;8.30;76.80;;;;;;5034058;28;20453;-66
2022/11/26 02:55:31;;;;;;;13.85;5.03;;;8.30;77.00;;;;;;5033846;28;20257;-66
2022/11/26 02:57:57;;;;;;;11.75;5.72;;;8.30;77.00;;;;;;5032149;28;20099;-66
2022/11/26 03:00:23;;;;;;;15.85;6.20;;;8.30;77.00;;;;;;5032640;28;20044;-66
2022/11/26 03:02:57;;;;;;;12.27;5.85;;;8.30;77.00;;;;;;5028582;28;20037;-66
2022/11/26 03:05:23;;;;;;;12.32;5.97;;;8.40;77.10;;;;;;5032745;28;20029;-66
2022/11/26 03:07:51;;;;;;;14.23;6.22;;;8.30;77.00;;;;;;5036855;28;20096;-66
2022/11/26 03:10:23;;;;;;;11.75;6.13;;;8.40;77.00;;;;;;5049029;28;20025;-66
2022/11/26 03:12:48;;;;;;;13.73;5.53;;;8.40;77.10;;;;;;5036138;28;20033;-66
2022/11/26 03:15:14;;;;;;;13.48;5.63;;;8.40;77.10;;;;;;5036932;28;20695;-66
2022/11/26 03:17:40;;;;;;;10.50;5.82;;;8.40;77.20;;;;;;5035674;28;20045;-66
2022/11/26 03:20:06;;;;;;;13.57;6.25;;;8.40;77.20;;;;;;5035466;28;20053;-66
2022/11/26 03:22:32;;;;;;;9.43;5.00;;;8.40;77.30;;;;;;5033989;28;20025;-66
2022/11/26 03:24:58;;;;;;;12.57;6.10;;;8.40;77.30;;;;;;5034901;28;20136;-66
2022/11/26 03:27:25;;;;;;;12.85;5.82;;;8.40;77.30;;;;;;5031164;28;20125;-66
2022/11/26 03:29:50;;;;;;;11.15;6.00;;;8.40;77.30;;;;;;5034121;28;20034;-66
2022/11/26 03:32:16;;;;;;;11.80;6.25;;;8.40;77.40;;;;;;5032509;28;20040;-66
2022/11/26 03:34:42;;;;;;;12.23;6.15;;;8.40;77.50;;;;;;5035054;28;20021;-66
2022/11/26 03:37:08;;;;;;;12.38;5.88;;;8.40;77.50;;;;;;5033995;28;20087;-66
2022/11/26 03:39:33;;;;;;;10.40;5.78;;;8.40;77.50;;;;;;5033466;28;20124;-66
2022/11/26 03:41:59;;;;;;;15.52;6.40;;;8.40;77.50;;;;;;5033914;28;20128;-66
2022/11/26 03:44:25;;;;;;;10.55;5.63;;;8.40;77.60;;;;;;5034195;28;20057;-66
2022/11/26 03:46:50;;;;;;;13.27;6.18;;;8.40;77.60;;;;;;5033793;28;20025;-66
2022/11/26 03:49:16;;;;;;;13.52;5.82;;;8.30;77.50;;;;;;5035116;28;20423;-66
2022/11/26 03:51:41;;;;;;;14.68;6.95;;;8.40;77.50;;;;;;5034829;28;20037;-66
2022/11/26 03:54:07;;;;;;;28.63;6.53;;;8.30;77.40;;;;;;5034802;28;20365;-66
2022/11/26 03:56:33;;;;;;;13.20;6.28;;;8.30;77.40;;;;;;5031834;28;20057;-66
2022/11/26 03:58:58;;;;;;;13.90;6.70;;;8.30;77.50;;;;;;5034787;28;20036;-66
2022/11/26 04:01:24;;;;;;;13.10;6.85;;;8.30;77.50;;;;;;5034355;28;20083;-66
2022/11/26 04:03:50;;;;;;;10.95;6.20;;;8.30;77.50;;;;;;5033665;28;20083;-66
2022/11/26 04:06:16;;;;;;;13.90;6.57;;;8.20;77.40;;;;;;5033971;28;20361;-66
2022/11/26 04:08:41;;;;;;;10.85;5.90;;;8.30;77.40;;;;;;5032978;28;20033;-66
2022/11/26 04:11:07;;;;;;;13.43;6.22;;;8.20;77.30;;;;;;5014486;28;20454;-66
2022/11/26 04:13:33;;;;;;;12.65;5.68;;;8.20;77.30;;;;;;5040101;28;20029;-66
2022/11/26 04:15:58;;;;;;;13.27;5.55;;;8.20;77.30;;;;;;5031891;28;20468;-66
2022/11/26 04:18:24;;;;;;;14.80;6.40;;;8.20;77.30;;;;;;5031148;28;20044;-66
2022/11/26 04:20:50;;;;;;;13.45;6.03;;;8.20;77.30;;;;;;5033933;28;20044;-66
2022/11/26 04:23:15;;;;;;;13.02;6.60;;;8.20;77.30;;;;;;5032360;28;20013;-66
2022/11/26 04:25:41;;;;;;;18.65;6.90;;;8.20;77.30;;;;;;5032437;28;20018;-66
2022/11/26 04:28:06;;;;;;;11.63;6.35;;;8.10;77.20;;;;;;5033475;28;20032;-66
2022/11/26 04:30:32;;;;;;;12.73;7.22;;;8.10;77.30;;;;;;5033155;28;20014;-66
2022/11/26 04:32:58;;;;;;;11.73;6.65;;;8.10;77.20;;;;;;5043067;28;20465;-66
2022/11/26 04:35:23;;;;;;;11.00;5.82;;;8.10;77.20;;;;;;5032878;28;20037;-66
2022/11/26 04:37:49;;;;;;;10.70;5.28;;;8.10;77.20;;;;;;5033182;28;20031;-66
2022/11/26 04:40:15;;;;;;;11.38;5.78;;;8.10;77.20;;;;;;5032736;28;20115;-66
2022/11/26 04:42:40;;;;;;;14.63;6.43;;;8.00;77.20;;;;;;5033012;28;20056;-66
2022/11/26 04:45:06;;;;;;;11.63;6.07;;;8.00;77.20;;;;;;5030492;28;20017;-66
2022/11/26 04:47:32;;;;;;;12.23;6.38;;;8.00;77.20;;;;;;5034669;28;20030;-66
2022/11/26 04:49:58;;;;;;;12.85;6.53;;;8.00;77.20;;;;;;5033018;28;20032;-66
2022/11/26 04:52:23;;;;;;;11.65;6.18;;;8.00;77.20;;;;;;5037458;28;20069;-67
2022/11/26 04:54:49;;;;;;;11.85;6.50;;;8.00;77.10;;;;;;5032301;28;20037;-66
2022/11/26 04:57:14;;;;;;;11.48;5.78;;;7.90;77.00;;;;;;5031575;28;20036;-66
2022/11/26 04:59:40;;;;;;;13.95;6.57;;;7.90;77.10;;;;;;5032196;28;20037;-66
2022/11/26 05:02:06;;;;;;;12.20;6.63;;;8.00;77.20;;;;;;5030591;28;20461;-66
2022/11/26 05:04:31;;;;;;;14.07;6.20;;;7.90;77.10;;;;;;5032751;28;20022;-66
2022/11/26 05:06:57;;;;;;;11.60;6.50;;;8.00;77.20;;;;;;5032661;28;20030;-66
2022/11/26 05:09:23;;;;;;;12.50;6.20;;;8.00;77.20;;;;;;5031614;28;20068;-66
2022/11/26 05:11:48;;;;;;;12.38;6.55;;;8.00;77.30;;;;;;5030495;28;20033;-66
2022/11/26 05:14:14;;;;;;;12.52;6.65;;;8.00;77.30;;;;;;5032124;28;20033;-66
2022/11/26 05:16:39;;;;;;;12.90;7.00;;;8.10;77.40;;;;;;5030926;28;20056;-66
2022/11/26 05:19:05;;;;;;;13.82;6.95;;;8.10;77.50;;;;;;5032830;28;20045;-66
2022/11/26 05:21:31;;;;;;;11.85;6.45;;;8.10;77.60;;;;;;5032097;28;20029;-66
2022/11/26 05:23:56;;;;;;;14.20;6.75;;;8.10;77.60;;;;;;5033003;28;20035;-67
2022/11/26 05:26:22;;;;;;;12.15;6.72;;;8.10;77.60;;;;;;5033177;28;20350;-66
2022/11/26 05:28:47;;;;;;;12.32;6.88;;;8.10;77.60;;;;;;5031143;28;20026;-66
2022/11/26 05:31:13;;;;;;;16.23;7.25;;;8.10;77.60;;;;;;5031089;28;20033;-66
2022/11/26 05:33:39;;;;;;;17.90;6.63;;;8.10;77.60;;;;;;5033099;28;20029;-66
2022/11/26 05:36:04;;;;;;;13.85;6.80;;;8.10;77.70;;;;;;5032150;28;20457;-66
2022/11/26 05:38:30;;;;;;;18.02;7.28;;;8.10;77.70;;;;;;5031361;28;20034;-66
2022/11/26 05:40:56;;;;;;;14.02;7.07;;;8.10;77.70;;;;;;5032000;28;20031;-66
2022/11/26 05:43:22;;;;;;;13.95;7.00;;;8.00;77.70;;;;;;5033099;28;20061;-66
2022/11/26 05:45:47;;;;;;;19.10;7.32;;;8.10;77.70;;;;;;5032136;28;20026;-66
2022/11/26 05:48:13;;;;;;;12.73;6.25;;;8.00;77.70;;;;;;5032232;28;20030;-66
2022/11/26 05:50:39;;;;;;;12.23;6.28;;;8.00;77.70;;;;;;5029629;28;20030;-66
2022/11/26 05:53:04;;;;;;;12.32;6.43;;;8.00;77.70;;;;;;5032171;28;20108;-66
2022/11/26 05:55:31;;;;;;;11.88;6.28;;;8.00;77.60;;;;;;5031164;28;20043;-66
2022/11/26 05:57:56;;;;;;;14.20;7.20;;;8.00;77.70;;;;;;5031357;28;20026;-66
2022/11/26 06:00:22;;;;;;;17.50;6.85;;;8.00;77.60;;;;;;5026761;28;20155;-66
2022/11/26 06:02:48;;;;;;;14.07;7.53;;;8.00;77.60;;;;;;5032874;28;20048;-66
2022/11/26 06:05:13;;;;;;;10.50;6.05;;;8.00;77.60;;;;;;5032659;28;20018;-66
2022/11/26 06:07:39;;;;;;;13.32;6.95;;;8.00;77.60;;;;;;5031082;28;20116;-66
2022/11/26 06:10:06;;;;;;;17.65;7.05;;;7.90;77.60;;;;;;5031584;28;20108;-66
2022/11/26 06:12:31;;;;;;;14.03;6.80;;;7.90;77.60;;;;;;5031660;28;20476;-66
2022/11/26 06:14:57;;;;;;;13.60;7.38;;;7.90;77.60;;;;;;5031543;28;20022;-66
2022/11/26 06:17:23;;;;;;;14.52;6.63;;;7.90;77.50;;;;;;5031394;28;20029;-66
2022/11/26 06:19:49;;;;;;;14.38;6.95;;;7.90;77.50;;;;;;5032569;28;20139;-66
2022/11/26 06:22:14;;;;;;;15.52;7.18;;;7.90;77.50;;;;;;5030524;28;20117;-66
2022/11/26 06:24:40;;;;;;;14.80;6.55;;;7.90;77.50;;;;;;5032409;28;20021;-66
2022/11/26 06:27:06;;;;;;;14.52;7.72;;;7.90;77.50;;;;;;5030551;28;20021;-66
2022/11/26 06:29:31;;;;;;;14.38;7.13;;;7.80;77.40;;;;;;5031743;28;20071;-66
2022/11/26 06:31:57;;;;;;;12.65;7.13;;;7.80;77.40;;;;;;5036456;28;20034;-66
2022/11/26 06:34:23;;;;;;;12.30;7.20;;;7.80;77.50;;;;;;5030891;28;20072;-66
2022/11/26 06:36:48;;;;;;;13.43;7.30;;;7.80;77.40;;;;;;5030856;28;20025;-66
2022/11/26 06:39:14;;;;;;;14.55;7.28;;;7.70;77.40;;;;;;5032125;28;20026;-66
2022/11/26 06:41:40;;;;;;;16.50;7.47;;;7.70;77.40;;;;;;5033494;28;20078;-66
2022/11/26 06:44:06;;;;;;;15.05;8.13;;;7.70;77.40;;;;;;5034701;28;20049;-66
2022/11/26 06:46:34;;;;;;;12.27;6.25;;;7.60;77.30;;;;;;5034372;28;20040;-66
2022/11/26 06:49:01;;;;;;;15.85;7.32;;;7.60;77.30;;;;;;5034790;28;20337;-66
2022/11/26 06:51:27;;;;;;;14.85;6.93;;;7.60;77.30;;;;;;5032650;28;20041;-66
2022/11/26 06:53:53;;;;;;;18.75;7.38;;;7.60;77.20;;;;;;5032429;28;20034;-66
2022/11/26 06:56:19;;;;;;;13.47;7.07;;;7.60;77.20;;;;;;5036559;28;20026;-66
2022/11/26 06:58:46;;;;;;;18.20;7.38;;;7.60;77.20;;;;;;5037207;28;20472;-66
2022/11/26 07:01:22;;;;;;;14.07;6.80;;;7.50;77.20;;;;;;5034200;28;20039;-66
2022/11/26 07:03:48;;;;;;;15.83;7.70;;;7.60;77.20;;;;;;5032016;28;20041;-66
2022/11/26 07:06:28;;;;;;;16.17;7.90;;;7.50;77.10;;;;;;5034577;28;20489;-66
2022/11/26 07:08:55;;;;;;;14.40;7.33;;;7.60;77.10;;;;;;5036630;28;20061;-66
2022/11/26 07:11:23;;;;;;;15.67;8.33;;;7.50;77.10;;;;;;5038106;28;20040;-66
2022/11/26 07:13:48;;;;;;;13.87;6.87;;;7.50;77.00;;;;;;5051865;28;20446;-66
2022/11/26 07:16:14;;;;;;;16.27;7.80;;;7.50;77.00;;;;;;5034372;28;20056;-66
2022/11/26 07:18:40;;;;;;;13.40;7.73;;;7.50;77.00;;;;;;5036882;28;20111;-66
2022/11/26 07:21:08;;;;;;;13.30;7.63;;;7.50;77.00;;;;;;5035522;28;20041;-66
2022/11/26 07:23:34;;;;;;;15.27;7.37;;;7.50;77.00;;;;;;5034586;28;20033;-67
2022/11/26 07:26:01;;;;;;;12.02;6.72;;;7.40;77.00;;;;;;5035911;28;20028;-67
2022/11/26 07:28:28;;;;;;;13.63;7.78;;;7.50;77.10;;;;;;5035981;28;20025;-66
2022/11/26 07:30:54;;;;;;;14.63;7.85;;;7.50;77.00;;;;;;5034885;28;20458;-66
2022/11/26 07:33:19;;;;;;;13.60;7.70;;;7.50;77.00;;;;;;5035205;28;20037;-67
2022/11/26 07:35:45;;;;;;;10.98;7.18;;;7.50;77.00;;;;;;5034448;28;20106;-66
2022/11/26 07:38:11;;;;;;;14.45;7.45;;;7.50;77.00;;;;;;5034969;28;20159;-66
2022/11/26 07:40:36;;;;;;;15.93;8.13;;;7.50;76.90;;;;;;5036825;28;20426;-66
2022/11/26 07:43:02;;;;;;;14.10;7.80;;;7.50;76.90;;;;;;5034717;28;20033;-67
2022/11/26 07:45:29;;;;;;;11.77;7.30;;;7.50;77.60;;;;;;5035292;28;20033;-66
2022/11/26 07:47:54;;;;;;;18.77;8.20;;;7.50;76.90;;;;;;5027981;28;20017;-67
2022/11/26 07:50:20;;;;;;;20.50;8.23;;;7.50;76.90;;;;;;5019495;28;20017;-67
2022/11/26 07:52:45;;;;;;;16.35;8.23;;;7.50;76.90;;;;;;5034939;28;20029;-67
2022/11/26 07:55:11;;;;;;;15.40;7.57;;;7.50;76.90;;;;;;5052403;28;20042;-67
2022/11/26 07:57:37;;;;;;;17.30;8.90;;;7.50;76.90;;;;;;5036539;28;20037;-67
2022/11/26 08:00:03;;;;;;;15.50;7.70;;;7.50;76.90;;;;;;5036974;28;20039;-67
2022/11/26 08:02:37;;;;;;;16.90;8.83;;;7.50;76.90;;;;;;5035139;28;20040;-67
2022/11/26 08:05:03;;;;;;;17.37;8.67;;;7.50;77.00;;;;;;5036698;28;20021;-67
2022/11/26 08:07:29;;;;;;;19.77;9.33;;;7.50;76.90;;;;;;5036101;28;20036;-67
2022/11/26 08:09:54;;;;;;;16.88;8.85;;;7.50;77.00;;;;;;5036368;28;20369;-67
2022/11/26 08:12:20;;;;;;;16.80;8.53;;;7.60;77.00;;;;;;5034951;28;20030;-67
2022/11/26 08:14:45;;;;;;;16.90;8.83;;;7.60;77.00;;;;;;5034774;28;20042;-68
2022/11/26 08:17:11;;;;;;;22.30;9.40;;;7.60;76.90;;;;;;5034535;28;20033;-67
2022/11/26 08:19:37;;;;;;;17.05;8.38;;;7.70;77.00;;;;;;5033175;28;20408;-68
2022/11/26 08:22:02;;;;;;;17.70;8.67;;;7.70;76.90;;;;;;5033112;28;20083;-67
2022/11/26 08:24:29;;;;;;;15.95;8.35;;;7.70;76.90;;;;;;5034076;28;20080;-67
2022/11/26 08:26:58;;;;;;;19.70;8.57;;;7.80;77.00;;;;;;5033199;28;20029;-67
2022/11/26 08:29:24;;;;;;;16.00;8.27;;;7.80;76.90;;;;;;5023950;28;20030;-66
2022/11/26 08:31:50;;;;;;;19.40;8.50;;;7.90;76.90;;;;;;5024793;28;20171;-67
2022/11/26 08:34:16;;;;;;;15.75;7.53;;;7.90;76.80;;;;;;5031559;28;20025;-69
2022/11/26 08:36:43;;;;;;;19.55;9.02;;;7.90;76.90;;;;;;5033869;28;20025;-68
2022/11/26 08:39:12;;;;;;;14.57;7.88;;;7.90;76.90;;;;;;5033530;28;20029;-68
2022/11/26 08:41:38;;;;;;;16.85;8.55;;;8.00;76.90;;;;;;5032368;28;20522;-69
2022/11/26 08:44:03;;;;;;;16.33;8.30;;;8.00;76.90;;;;;;5028029;28;20116;-68
2022/11/26 08:46:29;;;;;;;16.27;8.43;;;8.10;76.90;;;;;;5030998;28;20403;-69
2022/11/26 08:48:55;;;;;;;13.98;7.85;;;8.10;77.00;;;;;;5025223;28;20033;-69
2022/11/26 08:51:21;;;;;;;19.45;9.35;;;8.20;77.00;;;;;;5033023;28;20442;-69
2022/11/26 08:53:47;;;;;;;16.90;9.07;;;8.30;77.10;;;;;;5027137;28;20180;-70
2022/11/26 08:56:12;;;;;;;18.77;9.13;;;8.30;77.00;;;;;;5030987;28;20352;-69
2022/11/26 08:58:41;;;;;;;15.32;9.20;;;8.40;77.10;;;;;;5033579;28;20030;-69
2022/11/26 09:01:16;;;;;;;15.93;9.05;;;8.50;77.10;;;;;;5031878;28;20071;-69
2022/11/26 09:03:42;;;;;;;17.38;9.25;;;8.60;77.10;;;;;;5050224;28;20036;-69
2022/11/26 09:06:09;;;;;;;19.42;9.07;;;8.60;77.30;;;;;;5015358;28;20033;-69
2022/11/26 09:11:21;;;;;;;15.80;8.70;;;8.70;77.20;;;;;;5032832;28;20116;-69
2022/11/26 09:13:47;;;;;;;15.23;8.32;;;8.70;77.30;;;;;;5035118;28;20080;-69
2022/11/26 09:16:12;;;;;;;14.65;8.80;;;8.70;77.30;;;;;;5039958;28;20539;-69
2022/11/26 09:18:38;;;;;;;15.25;8.60;;;8.70;77.40;;;;;;5033008;28;20124;-69
2022/11/26 09:21:03;;;;;;;14.65;8.70;;;8.70;77.50;;;;;;5033768;28;20037;-69
2022/11/26 09:23:29;;;;;;;15.77;8.52;;;8.70;77.60;;;;;;5034762;28;20362;-68
2022/11/26 09:25:55;;;;;;;14.20;8.55;;;8.70;77.70;;;;;;5034650;28;20033;-68
2022/11/26 09:28:20;;;;;;;13.98;8.15;;;8.70;77.80;;;;;;5034731;28;20393;-68
2022/11/26 09:30:46;;;;;;;15.30;8.02;;;8.70;77.90;;;;;;5031391;28;20112;-68
2022/11/26 09:33:12;;;;;;;13.27;7.97;;;8.80;78.00;;;;;;5033738;28;20033;-68
2022/11/26 09:35:37;;;;;;;20.95;9.02;;;8.80;78.00;;;;;;5032737;28;20032;-68
2022/11/26 09:38:03;;;;;;;19.05;9.43;;;8.80;78.20;;;;;;5033437;28;20017;-68
2022/11/26 09:41:02;;;;;;;15.57;8.40;;;8.80;78.30;;;;;;5033301;28;20053;-68
2022/11/26 09:44:17;;;;;;;15.10;8.60;;;8.80;78.50;;;;;;5020299;28;20084;-67
2022/11/26 09:47:13;;;;;;;16.13;8.43;;;8.90;78.40;;;;;;5028108;28;20021;-68
2022/11/26 09:49:43;;;;;;;14.63;8.02;;;8.90;78.50;;;;;;5033223;28;20075;-69
2022/11/26 09:52:12;;;;;;;16.77;9.35;;;8.90;78.50;;;;;;5030343;28;20022;-67
2022/11/26 09:54:38;;;;;;;16.33;8.20;;;8.90;78.60;;;;;;5032027;28;20032;-68
2022/11/26 09:57:27;;;;;;;17.88;8.85;;;9.00;78.70;;;;;;5034113;28;20451;-69
2022/11/26 09:59:54;;;;;;;16.73;8.55;;;9.00;78.60;;;;;;5014526;28;20111;-68
2022/11/26 10:02:21;;;;;;;14.23;8.55;;;9.10;78.70;;;;;;5046995;28;20037;-71
2022/11/26 10:04:47;;;;;;;16.65;8.90;;;9.10;78.80;;;;;;5027368;28;20075;-68
2022/11/26 10:07:37;;;;;;;18.60;8.48;;;9.10;78.90;;;;;;5030673;28;20029;-69
2022/11/26 10:10:31;;;;;;;19.55;8.07;;;9.20;79.60;;;;;;5049718;28;20113;-67
2022/11/26 10:13:06;;;;;;;14.05;8.20;;;9.20;79.00;;;;;;5031971;28;20108;-69
2022/11/26 10:15:41;;;;;;;14.00;7.38;;;9.30;79.00;;;;;;5013334;28;20409;-68
2022/11/26 10:18:42;;;;;;;16.58;8.07;;;9.30;79.10;;;;;;5036704;28;20159;-75
2022/11/26 10:21:19;;;;;;;14.00;7.55;;;9.40;79.20;;;;;;5028444;28;20034;-69
2022/11/26 10:23:51;;;;;;;16.30;7.88;;;9.40;79.10;;;;;;5035505;28;20025;-67
2022/11/26 10:26:23;;;;;;;13.77;7.45;;;9.40;79.80;;;;;;5024378;28;20073;-68
2022/11/26 10:28:56;;;;;;;14.63;8.55;;;9.40;79.20;;;;;;5035736;28;20033;-69
2022/11/26 10:31:25;;;;;;;16.38;8.98;;;9.40;79.30;;;;;;5034928;28;20025;-68
2022/11/26 10:33:57;;;;;;;23.58;9.93;;;9.50;79.30;;;;;;5037068;28;20026;-68
2022/11/26 10:36:38;;;;;;;;;;;9.60;79.50;;;;;;5050796;28;20407;-69
2022/11/26 10:39:06;;;;;;;16.05;7.82;;;9.60;79.30;;;;;;5030275;28;19917;-70
2022/11/26 10:41:34;;;;;;;15.90;7.88;;;9.60;79.30;;;;;;5031931;28;20402;-69
2022/11/26 10:44:26;;;;;;;18.35;8.35;;;9.60;79.50;;;;;;5051621;28;20032;-67
2022/11/26 10:46:52;;;;;;;14.88;7.57;;;9.70;79.60;;;;;;5033439;28;20029;-68
2022/11/26 10:49:25;;;;;;;16.83;8.07;;;9.70;79.60;;;;;;5018792;28;20032;-68
2022/11/26 10:51:56;;;;;;;15.80;6.95;;;9.80;79.90;;;;;;5035469;28;20029;-67
2022/11/26 10:54:36;;;;;;;20.07;7.93;;;9.80;79.90;;;;;;5036401;28;20053;-67
2022/11/26 10:57:16;;;;;;;14.65;7.28;;;9.80;79.90;;;;;;5037605;28;20290;-68
2022/11/26 10:59:50;;;;;;;14.60;6.63;;;9.90;80.00;;;;;;5031991;28;20026;-68
2022/11/26 11:02:19;;;;;;;18.92;7.30;;;9.90;80.00;;;;;;5036942;28;20507;-68
2022/11/26 11:04:48;;;;;;;18.50;7.63;;;9.90;80.00;;;;;;5033351;28;20025;-67
2022/11/26 11:07:32;;;;;;;17.60;7.25;;;10.00;80.00;;;;;;5035085;28;20414;-67
2022/11/26 11:10:18;;;;;;;16.38;6.70;;;10.10;80.10;;;;;;5035255;28;20026;-68
2022/11/26 11:12:49;;;;;;;20.52;7.43;;;10.10;80.70;;;;;;5034050;28;20045;-68
2022/11/26 11:15:25;;;;;;;17.08;7.28;;;10.20;80.10;;;;;;5035736;28;20120;-68
2022/11/26 11:18:03;;;;;;;15.63;7.75;;;10.20;80.00;;;;;;5034892;28;20109;-69
2022/11/26 11:20:36;;;;;;;14.25;6.80;;;10.20;80.00;;;;;;5027998;28;20450;-68
2022/11/26 11:23:10;;;;;;;17.55;6.70;;;10.30;80.00;;;;;;5034481;28;20026;-67
2022/11/26 11:25:42;;;;;;;15.05;6.38;;;10.30;80.10;;;;;;5035476;28;20030;-66
2022/11/26 11:28:11;;;;;;;18.77;7.18;;;10.30;80.20;;;;;;5035686;28;20052;-66
2022/11/26 11:30:37;;;;;;;14.82;6.85;;;10.40;80.20;;;;;;5035890;28;20457;-66
2022/11/26 11:33:22;;;;;;;18.13;7.43;;;10.40;80.10;;;;;;5031137;28;20091;-67
2022/11/26 11:36:26;;;;;;;19.00;7.00;;;10.40;80.80;;;;;;5036252;28;20039;-67
2022/11/26 11:38:59;;;;;;;19.05;6.80;;;10.40;80.10;;;;;;5036095;28;20037;-67
2022/11/26 11:41:38;;;;;;;15.82;7.22;;;10.40;80.20;;;;;;5035401;28;20445;-67
2022/11/26 11:44:37;;;;;;;14.18;6.78;;;10.40;80.20;;;;;;5035736;28;20025;-67
2022/11/26 11:47:21;;;;;;;17.45;6.55;;;10.50;80.30;;;;;;5042617;28;20392;-67
2022/11/26 11:49:47;;;;;;;14.27;6.22;;;10.50;80.30;;;;;;5050977;28;20057;-67
2022/11/26 11:52:23;;;;;;;16.23;6.05;;;10.50;80.10;;;;;;5036930;28;20075;-67
2022/11/26 11:54:59;;;;;;;14.85;5.80;;;10.60;80.30;;;;;;5050719;28;20038;-66
2022/11/26 11:57:53;;;;;;;16.88;6.00;;;10.60;80.30;;;;;;5036514;28;20091;-67
2022/11/26 12:00:22;;;;;;;17.70;6.82;;;10.70;80.20;;;;;;5035531;28;20040;-67
2022/11/26 12:03:14;;;;;;;15.00;6.47;;;10.70;80.00;;;;;;5036208;28;20120;-67
2022/11/26 12:06:03;;;;;;;14.48;6.43;;;10.80;80.10;;;;;;5036651;28;20349;-67
2022/11/26 12:08:48;;;;;;;16.60;6.13;;;10.90;80.10;;;;;;5035705;28;20021;-67
2022/11/26 12:11:31;;;;;;;15.10;5.82;;;10.90;80.00;;;;;;5049970;28;20474;-67
2022/11/26 12:14:19;;;;;;;14.88;5.75;;;10.90;80.00;;;;;;5031159;28;20164;-67
2022/11/26 12:16:48;;;;;;;13.60;5.00;;;11.00;80.10;;;;;;5034669;28;20110;-67
2022/11/26 12:19:47;;;;;;;14.38;6.20;;;11.00;80.10;;;;;;5036134;28;20140;-67
2022/11/26 12:22:27;;;;;;;14.15;5.47;;;11.00;80.80;;;;;;5033881;28;20029;-66
2022/11/26 12:25:18;;;;;;;15.70;5.95;;;11.00;80.20;;;;;;5037362;28;20022;-67
2022/11/26 12:27:54;;;;;;;13.93;5.75;;;11.00;80.20;;;;;;5034292;28;20040;-66
2022/11/26 12:30:25;;;;;;;16.08;5.75;;;11.00;80.20;;;;;;5035397;28;20083;-66
2022/11/26 12:32:56;;;;;;;16.00;5.78;;;11.00;80.30;;;;;;5033211;28;20053;-67
2022/11/26 12:35:35;;;;;;;20.35;5.45;;;11.10;80.30;;;;;;5034849;28;20039;-67
2022/11/26 12:38:07;;;;;;;14.90;5.60;;;11.10;80.40;;;;;;5033108;28;20056;-66
2022/11/26 12:40:39;;;;;;;15.68;5.60;;;11.10;80.40;;;;;;5036157;28;20378;-67
2022/11/26 12:43:17;;;;;;;16.30;5.55;;;11.10;80.50;;;;;;5034143;28;20034;-67
2022/11/26 12:45:57;;;;;;;14.98;5.00;;;11.10;80.50;;;;;;5034291;28;20077;-67
2022/11/26 12:48:44;;;;;;;14.57;5.57;;;11.10;80.50;;;;;;5028835;28;20057;-67
2022/11/26 12:51:25;;;;;;;13.57;6.22;;;11.20;81.20;;;;;;5033781;28;20068;-69
2022/11/26 12:53:56;;;;;;;14.57;6.00;;;11.20;80.60;;;;;;5033381;28;20067;-66
2022/11/26 12:56:37;;;;;;;18.90;6.05;;;11.20;80.50;;;;;;5033769;28;20303;-72
2022/11/26 12:59:05;;;;;;;13.35;4.82;;;11.20;80.60;;;;;;5033373;28;20029;-66
2022/11/26 13:01:32;;;;;;;14.15;5.07;;;11.20;80.60;;;;;;5035131;28;20401;-67
2022/11/26 13:03:59;;;;;;;17.90;5.88;;;11.20;80.60;;;;;;5035107;28;20041;-67